createdAt,value
2022-08-21T00:00:32.820Z,100.00
2022-08-21T00:03:07.881Z,100.00
2022-08-21T00:05:45.762Z,100.00
2022-08-21T00:08:16.933Z,100.00
2022-08-21T00:10:48.179Z,100.00
2022-08-21T00:13:20.719Z,100.00
2022-08-21T00:15:52.788Z,100.00
2022-08-21T00:18:23.706Z,100.00
2022-08-21T00:20:56.649Z,100.00
2022-08-21T00:23:27.114Z,100.00
2022-08-21T00:25:57.313Z,100.00
2022-08-21T00:28:27.308Z,100.00
2022-08-21T00:30:57.728Z,100.00
2022-08-21T00:33:28.113Z,100.00
2022-08-21T00:36:01.407Z,100.00
2022-08-21T00:38:31.398Z,100.00
2022-08-21T00:41:27.587Z,100.00
2022-08-21T00:43:58.669Z,100.00
2022-08-21T00:46:28.964Z,100.00
2022-08-21T00:48:59.853Z,100.00
2022-08-21T00:51:40.304Z,100.00
2022-08-21T00:54:18.311Z,100.00
2022-08-21T00:56:53.805Z,100.00
2022-08-21T00:59:27.192Z,100.00
2022-08-21T01:01:57.695Z,100.00
2022-08-21T01:04:28.126Z,100.00
2022-08-21T01:07:01.020Z,100.00
2022-08-21T01:09:31.208Z,100.00
2022-08-21T01:12:01.346Z,100.00
2022-08-21T01:14:32.484Z,100.00
2022-08-21T01:17:05.593Z,100.00
2022-08-21T01:19:36.156Z,100.00
2022-08-21T01:22:10.863Z,100.00
2022-08-21T01:24:40.929Z,100.00
2022-08-21T01:27:11.709Z,100.00
2022-08-21T01:29:48.753Z,100.00
2022-08-21T01:32:22.225Z,100.00
2022-08-21T01:34:55.960Z,100.00
2022-08-21T01:37:29.111Z,100.00
2022-08-21T01:39:59.229Z,100.00
2022-08-21T01:42:29.769Z,100.00
2022-08-21T01:45:00.193Z,100.00
2022-08-21T01:47:30.318Z,100.00
2022-08-21T01:50:00.502Z,100.00
2022-08-21T01:52:33.210Z,100.00
2022-08-21T01:55:03.366Z,100.00
2022-08-21T01:57:33.968Z,100.00
2022-08-21T02:00:04.679Z,100.00
2022-08-21T02:02:42.551Z,100.00
2022-08-21T02:05:16.269Z,100.00
2022-08-21T02:07:52.976Z,100.00
2022-08-21T02:10:27.588Z,100.00
2022-08-21T02:12:57.816Z,100.00
2022-08-21T02:15:28.334Z,100.00
2022-08-21T02:18:01.621Z,100.00
2022-08-21T02:20:35.511Z,100.00
2022-08-21T02:23:11.145Z,100.00
2022-08-21T02:25:42.150Z,100.00
2022-08-21T02:28:16.989Z,100.00
2022-08-21T02:30:53.405Z,100.00
2022-08-21T02:33:23.502Z,100.00
2022-08-21T02:35:54.139Z,100.00
2022-08-21T02:38:31.265Z,100.00
2022-08-21T02:41:01.743Z,100.00
2022-08-21T02:43:32.238Z,100.00
2022-08-21T02:46:02.418Z,100.00
2022-08-21T02:48:37.819Z,100.00
2022-08-21T02:51:12.327Z,100.00
2022-08-21T02:53:46.710Z,100.00
2022-08-21T02:56:19.602Z,100.00
2022-08-21T02:58:52.774Z,100.00
2022-08-21T03:01:24.748Z,100.00
2022-08-21T03:03:55.225Z,100.00
2022-08-21T03:06:26.614Z,100.00
2022-08-21T03:08:59.289Z,100.00
2022-08-21T03:11:29.571Z,100.00
2022-08-21T03:13:59.658Z,100.00
2022-08-21T03:16:34.373Z,100.00
2022-08-21T03:19:05.991Z,100.00
2022-08-21T03:21:36.007Z,100.00
2022-08-21T03:24:10.482Z,100.00
2022-08-21T03:26:41.444Z,100.00
2022-08-21T03:29:11.653Z,100.00
2022-08-21T03:31:41.625Z,100.00
2022-08-21T03:34:11.760Z,100.00
2022-08-21T03:36:41.901Z,100.00
2022-08-21T03:39:14.649Z,100.00
2022-08-21T03:41:44.993Z,100.00
2022-08-21T03:44:15.033Z,100.00
2022-08-21T03:46:44.949Z,100.00
2022-08-21T03:49:14.938Z,100.00
2022-08-21T03:51:44.929Z,100.00
2022-08-21T03:54:17.579Z,100.00
2022-08-21T03:56:48.477Z,100.00
2022-08-21T03:59:18.742Z,100.00
2022-08-21T04:01:57.017Z,100.00
2022-08-21T04:04:27.675Z,100.00
2022-08-21T04:06:58.258Z,100.00
2022-08-21T04:09:31.357Z,100.00
2022-08-21T04:12:04.119Z,100.00
2022-08-21T04:14:34.093Z,100.00
2022-08-21T04:17:04.129Z,100.00
2022-08-21T04:19:34.246Z,100.00
2022-08-21T04:22:04.289Z,100.00
2022-08-21T04:24:36.882Z,100.00
2022-08-21T04:27:07.180Z,100.00
2022-08-21T04:29:40.007Z,100.00
2022-08-21T04:32:10.368Z,100.00
2022-08-21T04:34:40.469Z,100.00
2022-08-21T04:37:10.459Z,100.00
2022-08-21T04:39:43.155Z,100.00
2022-08-21T04:42:13.106Z,100.00
2022-08-21T04:44:43.122Z,100.00
2022-08-21T04:47:13.129Z,100.00
2022-08-21T04:49:43.089Z,100.00
2022-08-21T04:52:14.769Z,100.00
2022-08-21T04:54:54.796Z,100.00
2022-08-21T04:57:39.718Z,100.00
2022-08-21T05:00:20.330Z,100.00
2022-08-21T05:02:55.348Z,100.00
2022-08-21T05:05:25.722Z,100.00
2022-08-21T05:07:57.229Z,100.00
2022-08-21T05:10:32.386Z,100.00
2022-08-21T05:13:04.361Z,100.00
2022-08-21T05:15:34.411Z,100.00
2022-08-21T05:18:04.498Z,100.00
2022-08-21T05:20:35.422Z,100.00
2022-08-21T05:23:11.314Z,100.00
2022-08-21T05:25:45.051Z,100.00
2022-08-21T05:28:16.434Z,100.00
2022-08-21T05:30:46.718Z,100.00
2022-08-21T05:33:16.921Z,100.00
2022-08-21T05:35:46.889Z,100.00
2022-08-21T05:38:18.570Z,100.00
2022-08-21T05:40:51.375Z,100.00
2022-08-21T05:43:21.470Z,100.00
2022-08-21T05:45:51.544Z,100.00
2022-08-21T05:48:27.373Z,100.00
2022-08-21T05:50:57.561Z,100.00
2022-08-21T05:53:28.666Z,100.00
2022-08-21T05:56:01.382Z,100.00
2022-08-21T05:58:31.321Z,100.00
2022-08-21T06:01:01.327Z,100.00
2022-08-21T06:03:36.236Z,100.00
2022-08-21T06:06:07.362Z,100.00
2022-08-21T06:08:37.904Z,100.00
2022-08-21T06:11:12.593Z,100.00
2022-08-21T06:13:43.068Z,100.00
2022-08-21T06:16:17.531Z,100.00
2022-08-21T06:18:49.378Z,100.00
2022-08-21T06:21:19.951Z,100.00
2022-08-21T06:23:50.094Z,100.00
2022-08-21T06:26:23.223Z,100.00
2022-08-21T06:28:53.371Z,100.00
2022-08-21T06:31:28.061Z,100.00
2022-08-21T06:33:58.797Z,100.00
2022-08-21T06:36:28.898Z,100.00
2022-08-21T06:38:58.891Z,100.00
2022-08-21T06:41:39.052Z,100.00
2022-08-21T06:44:09.260Z,97.02
2022-08-21T06:46:40.585Z,100.00
2022-08-21T06:49:17.517Z,97.00
2022-08-21T06:51:51.546Z,80.67
2022-08-21T06:54:21.500Z,85.49
2022-08-21T06:56:54.119Z,79.49
2022-08-21T06:59:24.139Z,92.80
2022-08-21T07:01:54.175Z,72.45
2022-08-21T07:04:24.353Z,69.96
2022-08-21T07:06:54.434Z,63.54
2022-08-21T07:09:25.025Z,60.17
2022-08-21T07:12:00.057Z,69.04
2022-08-21T07:14:30.290Z,67.91
2022-08-21T07:17:00.354Z,63.32
2022-08-21T07:19:30.318Z,62.17
2022-08-21T07:22:05.141Z,58.18
2022-08-21T07:24:35.139Z,59.05
2022-08-21T07:27:10.029Z,54.21
2022-08-21T07:29:40.365Z,50.06
2022-08-21T07:32:10.404Z,49.92
2022-08-21T07:34:40.436Z,48.28
2022-08-21T07:37:10.486Z,47.14
2022-08-21T07:39:40.869Z,46.18
2022-08-21T07:42:13.638Z,47.13
2022-08-21T07:44:43.857Z,44.77
2022-08-21T07:47:13.939Z,44.21
2022-08-21T07:49:43.906Z,41.99
2022-08-21T07:52:13.915Z,41.37
2022-08-21T07:54:43.893Z,41.54
2022-08-21T07:57:16.909Z,41.18
2022-08-21T07:59:51.641Z,40.15
2022-08-21T08:02:28.166Z,39.57
2022-08-21T08:05:02.513Z,37.46
2022-08-21T08:07:32.898Z,36.50
2022-08-21T08:10:02.862Z,35.36
2022-08-21T08:12:35.439Z,36.39
2022-08-21T08:15:11.490Z,34.48
2022-08-21T08:17:41.891Z,36.61
2022-08-21T08:20:15.465Z,36.64
2022-08-21T08:22:49.992Z,34.47
2022-08-21T08:25:23.939Z,35.31
2022-08-21T08:27:56.926Z,34.18
2022-08-21T08:30:31.182Z,33.90
2022-08-21T08:33:03.240Z,33.55
2022-08-21T08:35:33.312Z,33.83
2022-08-21T08:38:03.410Z,33.47
2022-08-21T08:40:43.181Z,33.73
2022-08-21T08:43:16.927Z,33.52
2022-08-21T08:45:51.873Z,33.07
2022-08-21T08:48:43.101Z,33.47
2022-08-21T08:51:25.369Z,33.91
2022-08-21T08:54:02.356Z,33.55
2022-08-21T08:56:36.563Z,32.86
2022-08-21T08:59:18.822Z,31.63
2022-08-21T09:01:49.682Z,30.90
2022-08-21T09:04:29.666Z,31.31
2022-08-21T09:07:16.681Z,30.37
2022-08-21T09:10:07.268Z,28.97
2022-08-21T09:12:49.494Z,29.53
2022-08-21T09:15:34.388Z,30.08
2022-08-21T09:18:22.240Z,29.55
2022-08-21T09:21:03.672Z,28.37
2022-08-21T09:23:46.622Z,27.50
2022-08-21T09:26:20.101Z,26.15
2022-08-21T09:28:56.111Z,26.11
2022-08-21T09:31:33.106Z,26.88
2022-08-21T09:34:05.380Z,26.57
2022-08-21T09:36:46.868Z,27.11
2022-08-21T09:39:27.874Z,26.77
2022-08-21T09:42:03.736Z,27.04
2022-08-21T09:44:40.862Z,26.56
2022-08-21T09:47:16.167Z,25.84
2022-08-21T09:49:48.370Z,25.74
2022-08-21T09:52:24.598Z,25.84
2022-08-21T09:54:58.088Z,25.36
2022-08-21T09:57:50.403Z,27.88
2022-08-21T10:00:30.826Z,26.38
2022-08-21T10:03:19.690Z,24.55
2022-08-21T10:06:02.710Z,24.22
2022-08-21T10:08:34.055Z,23.39
2022-08-21T10:11:10.781Z,23.50
2022-08-21T10:13:59.063Z,24.63
2022-08-21T10:16:45.368Z,24.95
2022-08-21T10:19:33.133Z,25.99
2022-08-21T10:22:25.482Z,25.59
2022-08-21T10:25:08.994Z,25.36
2022-08-21T10:27:50.860Z,25.58
2022-08-21T10:30:34.870Z,25.48
2022-08-21T10:33:36.199Z,25.60
2022-08-21T10:36:21.891Z,26.27
2022-08-21T10:42:28.635Z,25.09
2022-08-21T10:45:15.026Z,24.53
2022-08-21T10:47:56.052Z,23.81
2022-08-21T10:50:39.542Z,23.50
2022-08-21T10:53:45.946Z,23.49
2022-08-21T10:56:22.868Z,24.40
2022-08-21T10:59:21.682Z,24.82
2022-08-21T11:01:58.182Z,24.56
2022-08-21T11:04:49.075Z,23.98
2022-08-21T11:07:34.246Z,24.09
2022-08-21T11:10:17.027Z,24.75
2022-08-21T11:12:57.323Z,24.47
2022-08-21T11:15:44.960Z,23.61
2022-08-21T11:18:28.765Z,22.94
2022-08-21T11:21:19.394Z,23.61
2022-08-21T11:23:56.798Z,23.82
2022-08-21T11:26:37.914Z,24.46
2022-08-21T11:29:17.425Z,25.98
2022-08-21T11:32:04.807Z,26.47
2022-08-21T11:34:58.376Z,26.42
2022-08-21T11:37:51.270Z,27.14
2022-08-21T11:40:45.448Z,25.26
2022-08-21T11:43:33.776Z,24.91
2022-08-21T11:46:19.781Z,23.21
2022-08-21T11:49:06.812Z,23.32
2022-08-21T11:51:55.424Z,25.11
2022-08-21T11:54:32.719Z,24.92
2022-08-21T11:57:09.547Z,24.41
2022-08-21T11:59:50.921Z,24.27
2022-08-21T12:02:27.461Z,26.77
2022-08-21T12:05:09.241Z,25.11
2022-08-21T12:07:43.585Z,24.77
2022-08-21T12:10:21.982Z,25.41
2022-08-21T12:12:52.598Z,25.25
2022-08-21T12:15:40.296Z,24.49
2022-08-21T12:18:25.922Z,24.10
2022-08-21T12:21:07.017Z,24.97
2022-08-21T12:23:50.358Z,23.99
2022-08-21T12:26:35.721Z,23.69
2022-08-21T12:29:17.978Z,23.66
2022-08-21T12:32:02.070Z,24.96
2022-08-21T12:34:40.938Z,27.04
2022-08-21T12:37:25.634Z,27.91
2022-08-21T12:39:59.064Z,29.23
2022-08-21T12:42:42.377Z,30.37
2022-08-21T12:45:22.706Z,32.74
2022-08-21T12:48:03.945Z,34.14
2022-08-21T12:50:41.887Z,35.12
2022-08-21T12:53:23.993Z,33.50
2022-08-21T12:55:54.922Z,34.54
2022-08-21T12:58:28.101Z,34.48
2022-08-21T13:01:06.801Z,33.65
2022-08-21T13:03:41.956Z,31.43
2022-08-21T13:06:20.383Z,28.37
2022-08-21T13:08:59.384Z,25.37
2022-08-21T13:11:32.551Z,24.67
2022-08-21T13:14:06.952Z,25.58
2022-08-21T13:16:38.350Z,25.98
2022-08-21T13:19:24.060Z,25.63
2022-08-21T13:21:55.467Z,24.21
2022-08-21T13:24:42.313Z,23.66
2022-08-21T13:27:27.741Z,22.80
2022-08-21T13:30:16.602Z,23.79
2022-08-21T13:32:52.546Z,24.33
2022-08-21T13:35:29.955Z,24.93
2022-08-21T13:38:01.311Z,23.48
2022-08-21T13:40:36.115Z,23.78
2022-08-21T13:43:07.209Z,23.90
2022-08-21T13:45:37.359Z,24.08
2022-08-21T13:48:08.877Z,23.78
2022-08-21T13:50:44.418Z,23.19
2022-08-21T13:53:27.901Z,23.69
2022-08-21T13:56:00.736Z,22.77
2022-08-21T13:58:34.305Z,22.32
2022-08-21T14:01:06.649Z,21.15
2022-08-21T14:03:45.310Z,21.21
2022-08-21T14:06:22.424Z,21.24
2022-08-21T14:08:57.447Z,22.91
2022-08-21T14:11:30.116Z,23.65
2022-08-21T14:14:05.846Z,24.42
2022-08-21T14:16:50.074Z,23.64
2022-08-21T14:19:26.287Z,23.58
2022-08-21T14:21:59.073Z,23.60
2022-08-21T14:24:35.767Z,23.26
2022-08-21T14:27:10.165Z,22.95
2022-08-21T14:29:43.909Z,21.49
2022-08-21T14:32:24.569Z,21.10
2022-08-21T14:34:55.483Z,21.04
2022-08-21T14:37:31.958Z,21.50
2022-08-21T14:40:02.786Z,20.63
2022-08-21T14:42:33.606Z,20.04
2022-08-21T14:45:18.136Z,20.20
2022-08-21T14:47:53.837Z,20.30
2022-08-21T14:50:24.093Z,20.01
2022-08-21T14:53:00.728Z,20.16
2022-08-21T14:55:31.372Z,19.66
2022-08-21T14:58:01.407Z,19.63
2022-08-21T15:00:35.882Z,19.79
2022-08-21T15:03:06.582Z,20.19
2022-08-21T15:05:36.688Z,20.35
2022-08-21T15:08:09.396Z,20.41
2022-08-21T15:10:57.116Z,19.46
2022-08-21T15:13:30.204Z,18.97
2022-08-21T15:16:00.495Z,19.12
2022-08-21T15:18:33.344Z,19.12
2022-08-21T15:21:03.333Z,18.83
2022-08-21T15:23:36.068Z,18.63
2022-08-21T15:26:10.217Z,18.43
2022-08-21T15:28:40.465Z,18.85
2022-08-21T15:31:11.070Z,18.59
2022-08-21T15:33:41.036Z,18.50
2022-08-21T15:36:11.758Z,18.34
2022-08-21T15:38:44.918Z,19.02
2022-08-21T15:41:16.197Z,18.34
2022-08-21T15:43:51.251Z,17.72
2022-08-21T15:46:24.281Z,18.77
2022-08-21T15:48:59.230Z,17.77
2022-08-21T15:51:29.811Z,17.45
2022-08-21T15:54:02.438Z,17.22
2022-08-21T15:56:41.789Z,17.48
2022-08-21T15:59:18.358Z,16.94
2022-08-21T16:01:49.465Z,18.45
2022-08-21T16:04:27.153Z,20.42
2022-08-21T16:07:04.384Z,20.37
2022-08-21T16:09:41.102Z,19.40
2022-08-21T16:12:14.782Z,18.78
2022-08-21T16:14:44.795Z,18.99
2022-08-21T16:17:15.033Z,18.28
2022-08-21T16:19:45.313Z,18.36
2022-08-21T16:22:15.353Z,18.35
2022-08-21T16:24:48.239Z,17.64
2022-08-21T16:27:19.525Z,17.55
2022-08-21T16:29:50.576Z,17.82
2022-08-21T16:32:21.441Z,18.66
2022-08-21T16:34:52.680Z,19.63
2022-08-21T16:37:25.410Z,20.35
2022-08-21T16:39:58.244Z,19.52
2022-08-21T16:42:29.721Z,21.66
2022-08-21T16:44:59.723Z,21.31
2022-08-21T16:47:29.676Z,20.84
2022-08-21T16:49:59.682Z,21.06
2022-08-21T16:52:29.926Z,20.54
2022-08-21T16:55:02.702Z,20.12
2022-08-21T16:57:33.273Z,20.08
2022-08-21T17:00:05.096Z,19.93
2022-08-21T17:02:40.158Z,22.04
2022-08-21T17:05:13.915Z,22.29
2022-08-21T17:07:45.922Z,22.30
2022-08-21T17:10:20.330Z,22.19
2022-08-21T17:12:56.528Z,22.95
2022-08-21T17:15:31.583Z,23.04
2022-08-21T17:18:02.297Z,23.03
2022-08-21T17:20:33.294Z,22.76
2022-08-21T17:23:03.465Z,22.49
2022-08-21T17:25:37.036Z,25.71
2022-08-21T17:28:07.705Z,28.64
2022-08-21T17:30:38.409Z,27.30
2022-08-21T17:33:08.469Z,26.31
2022-08-21T17:35:38.517Z,26.91
2022-08-21T17:38:08.570Z,28.94
2022-08-21T17:40:42.099Z,28.38
2022-08-21T17:43:15.365Z,28.83
2022-08-21T17:45:46.579Z,30.24
2022-08-21T17:48:16.688Z,30.86
2022-08-21T17:50:46.709Z,32.93
2022-08-21T17:53:16.682Z,34.43
2022-08-21T17:55:49.305Z,36.38
2022-08-21T17:58:20.098Z,37.16
2022-08-21T18:00:50.543Z,40.13
2022-08-21T18:03:25.081Z,41.15
2022-08-21T18:05:57.161Z,40.82
2022-08-21T18:08:27.186Z,44.04
2022-08-21T18:10:59.810Z,41.09
2022-08-21T18:13:37.903Z,42.17
2022-08-21T18:16:12.586Z,43.63
2022-08-21T18:18:46.132Z,44.47
2022-08-21T18:21:16.179Z,45.60
2022-08-21T18:23:46.946Z,47.92
2022-08-21T18:26:29.678Z,48.30
2022-08-21T18:29:03.208Z,49.86
2022-08-21T18:31:36.147Z,50.65
2022-08-21T18:34:18.184Z,52.34
2022-08-21T18:36:50.350Z,55.01
2022-08-21T18:39:35.852Z,53.57
2022-08-21T18:42:16.137Z,55.50
2022-08-21T18:44:50.766Z,57.86
2022-08-21T18:47:27.012Z,58.06
2022-08-21T18:49:58.006Z,60.97
2022-08-21T18:52:28.632Z,63.26
2022-08-21T18:54:58.790Z,63.04
2022-08-21T18:57:42.050Z,64.62
2022-08-21T19:00:21.293Z,71.99
2022-08-21T19:02:51.606Z,69.84
2022-08-21T19:05:24.339Z,71.20
2022-08-21T19:07:55.598Z,73.31
2022-08-21T19:10:28.604Z,75.00
2022-08-21T19:13:04.429Z,80.09
2022-08-21T19:15:41.271Z,80.08
2022-08-21T19:18:16.762Z,78.93
2022-08-21T19:20:47.714Z,80.87
2022-08-21T19:23:20.454Z,84.37
2022-08-21T19:26:03.622Z,85.10
2022-08-21T19:28:42.128Z,85.20
2022-08-21T19:31:23.506Z,87.42
2022-08-21T19:34:02.221Z,88.65
2022-08-21T19:36:32.428Z,88.56
2022-08-21T19:39:08.370Z,89.64
2022-08-21T19:41:45.575Z,91.74
2022-08-21T19:44:23.158Z,90.15
2022-08-21T19:46:57.575Z,90.77
2022-08-21T19:49:33.319Z,92.45
2022-08-21T19:52:07.214Z,92.90
2022-08-21T19:54:44.740Z,93.72
2022-08-21T19:57:15.666Z,93.80
2022-08-21T19:59:48.722Z,93.95
2022-08-21T20:02:21.379Z,97.40
2022-08-21T20:04:54.096Z,97.28
2022-08-21T20:10:16.129Z,99.84
2022-08-21T20:12:51.045Z,100.00
2022-08-21T20:15:25.450Z,100.00
2022-08-21T20:17:55.609Z,100.00
2022-08-21T20:20:25.708Z,100.00
2022-08-21T20:23:00.798Z,100.00
2022-08-21T20:25:42.226Z,100.00
2022-08-21T20:28:12.829Z,100.00
2022-08-21T20:30:48.393Z,100.00
2022-08-21T20:33:18.773Z,100.00
2022-08-21T20:35:51.282Z,100.00
2022-08-21T20:38:22.796Z,100.00
2022-08-21T20:40:56.704Z,100.00
2022-08-21T20:43:28.563Z,100.00
2022-08-21T20:46:02.547Z,100.00
2022-08-21T20:48:49.345Z,100.00
2022-08-21T20:51:28.826Z,100.00
2022-08-21T20:54:10.654Z,100.00
2022-08-21T20:56:54.738Z,100.00
2022-08-21T20:59:44.226Z,100.00
2022-08-21T21:02:36.215Z,100.00
2022-08-21T21:05:15.303Z,100.00
2022-08-21T21:08:00.546Z,100.00
2022-08-21T21:10:39.234Z,100.00
2022-08-21T21:13:17.888Z,100.00
2022-08-21T21:15:52.424Z,100.00
2022-08-21T21:18:36.818Z,100.00
2022-08-21T21:21:23.134Z,100.00
2022-08-21T21:24:05.078Z,100.00
2022-08-21T21:26:46.134Z,100.00
2022-08-21T21:29:27.106Z,100.00
2022-08-21T21:32:00.344Z,100.00
2022-08-21T21:34:43.658Z,100.00
2022-08-21T21:40:35.426Z,100.00
2022-08-21T21:43:19.090Z,100.00
2022-08-21T21:46:12.501Z,100.00
2022-08-21T21:49:11.526Z,100.00
2022-08-21T21:52:00.445Z,100.00
2022-08-21T21:55:03.615Z,100.00
2022-08-21T21:57:56.069Z,100.00
2022-08-21T22:00:30.138Z,100.00
2022-08-21T22:03:13.187Z,100.00
2022-08-21T22:06:09.530Z,100.00
2022-08-21T22:08:58.472Z,100.00
2022-08-21T22:11:40.472Z,100.00
2022-08-21T22:14:16.141Z,100.00
2022-08-21T22:16:52.607Z,100.00
2022-08-21T22:19:29.281Z,100.00
2022-08-21T22:22:08.828Z,100.00
2022-08-21T22:24:48.007Z,100.00
2022-08-21T22:27:24.695Z,100.00
2022-08-21T22:29:58.956Z,100.00
2022-08-21T22:32:38.617Z,100.00
2022-08-21T22:35:20.202Z,100.00
2022-08-21T22:37:54.931Z,100.00
2022-08-21T22:40:31.622Z,100.00
2022-08-21T22:43:08.802Z,100.00
2022-08-21T22:46:00.813Z,100.00
2022-08-21T22:48:36.228Z,100.00
2022-08-21T22:51:13.970Z,100.00
2022-08-21T22:53:46.330Z,100.00
2022-08-21T22:56:36.730Z,100.00
2022-08-21T22:59:13.426Z,100.00
2022-08-21T23:01:48.401Z,100.00
2022-08-21T23:04:24.675Z,100.00
2022-08-21T23:06:59.364Z,100.00
2022-08-21T23:09:38.122Z,100.00
2022-08-21T23:15:21.778Z,100.00
2022-08-21T23:18:02.777Z,100.00
2022-08-21T23:20:42.660Z,100.00
2022-08-21T23:23:22.234Z,100.00
2022-08-21T23:26:17.511Z,100.00
2022-08-21T23:29:11.444Z,100.00
2022-08-21T23:31:53.342Z,100.00
2022-08-21T23:34:29.897Z,100.00
2022-08-21T23:37:48.617Z,100.00
2022-08-21T23:40:51.410Z,100.00
2022-08-21T23:43:41.976Z,100.00
2022-08-21T23:46:40.157Z,100.00
2022-08-21T23:49:25.470Z,100.00
2022-08-21T23:52:16.147Z,100.00
2022-08-21T23:55:06.422Z,100.00
2022-08-21T23:58:00.835Z,100.00
